sensor_id;sensor_type;location;lat;lon;timestamp;temperature;humidity
3380;DHT22;1703;51.964;7.642;2023-03-20T00:00:16;10.60;99.90
3380;DHT22;1703;51.964;7.642;2023-03-20T00:02:45;10.50;99.90
3380;DHT22;1703;51.964;7.642;2023-03-20T00:05:16;10.60;99.90
3380;DHT22;1703;51.964;7.642;2023-03-20T00:07:44;10.70;99.90
3380;DHT22;1703;51.964;7.642;2023-03-20T00:10:12;10.70;99.90
3380;DHT22;1703;51.964;7.642;2023-03-20T00:12:39;10.70;99.90
3380;DHT22;1703;51.964;7.642;2023-03-20T00:15:24;10.70;99.90
3380;DHT22;1703;51.964;7.642;2023-03-20T00:17:53;10.80;99.90
3380;DHT22;1703;51.964;7.642;2023-03-20T00:20:21;10.90;99.90
3380;DHT22;1703;51.964;7.642;2023-03-20T00:22:48;10.90;99.90
3380;DHT22;1703;51.964;7.642;2023-03-20T00:25:17;10.90;99.90
3380;DHT22;1703;51.964;7.642;2023-03-20T00:27:45;11.00;99.90
3380;DHT22;1703;51.964;7.642;2023-03-20T00:30:23;11.00;99.90
3380;DHT22;1703;51.964;7.642;2023-03-20T00:32:54;11.00;99.90
3380;DHT22;1703;51.964;7.642;2023-03-20T00:35:24;10.90;99.90
3380;DHT22;1703;51.964;7.642;2023-03-20T00:37:53;10.90;99.90
3380;DHT22;1703;51.964;7.642;2023-03-20T00:40:20;10.80;99.90
3380;DHT22;1703;51.964;7.642;2023-03-20T00:42:49;10.80;99.90
3380;DHT22;1703;51.964;7.642;2023-03-20T00:45:18;10.70;99.90
3380;DHT22;1703;51.964;7.642;2023-03-20T00:47:47;10.50;99.90
3380;DHT22;1703;51.964;7.642;2023-03-20T00:50:20;10.60;99.90
3380;DHT22;1703;51.964;7.642;2023-03-20T00:52:48;10.60;99.90
3380;DHT22;1703;51.964;7.642;2023-03-20T00:55:15;10.60;99.90
3380;DHT22;1703;51.964;7.642;2023-03-20T00:57:44;10.60;99.90
3380;DHT22;1703;51.964;7.642;2023-03-20T01:00:24;10.60;99.90
3380;DHT22;1703;51.964;7.642;2023-03-20T01:02:54;10.60;99.90
3380;DHT22;1703;51.964;7.642;2023-03-20T01:05:25;10.60;99.90
3380;DHT22;1703;51.964;7.642;2023-03-20T01:07:53;10.50;99.90
3380;DHT22;1703;51.964;7.642;2023-03-20T01:10:22;10.50;99.90
3380;DHT22;1703;51.964;7.642;2023-03-20T01:12:50;10.40;99.90
3380;DHT22;1703;51.964;7.642;2023-03-20T01:15:19;10.40;99.90
3380;DHT22;1703;51.964;7.642;2023-03-20T01:17:47;10.40;99.90
3380;DHT22;1703;51.964;7.642;2023-03-20T01:20:16;10.30;99.90
3380;DHT22;1703;51.964;7.642;2023-03-20T01:22:45;10.30;99.90
3380;DHT22;1703;51.964;7.642;2023-03-20T01:25:12;10.30;99.90
3380;DHT22;1703;51.964;7.642;2023-03-20T01:27:39;10.20;99.90
3380;DHT22;1703;51.964;7.642;2023-03-20T01:30:16;10.20;99.90
3380;DHT22;1703;51.964;7.642;2023-03-20T01:32:43;10.20;99.90
3380;DHT22;1703;51.964;7.642;2023-03-20T01:35:12;10.20;99.90
3380;DHT22;1703;51.964;7.642;2023-03-20T01:37:39;10.20;99.90
3380;DHT22;1703;51.964;7.642;2023-03-20T01:40:18;10.20;99.90
3380;DHT22;1703;51.964;7.642;2023-03-20T01:42:47;10.30;99.90
3380;DHT22;1703;51.964;7.642;2023-03-20T01:45:16;10.20;99.90
3380;DHT22;1703;51.964;7.642;2023-03-20T01:47:43;10.20;99.90
3380;DHT22;1703;51.964;7.642;2023-03-20T01:50:26;10.30;99.90
3380;DHT22;1703;51.964;7.642;2023-03-20T01:53:09;10.20;99.90
3380;DHT22;1703;51.964;7.642;2023-03-20T01:55:46;10.20;99.90
3380;DHT22;1703;51.964;7.642;2023-03-20T01:58:17;10.20;99.90
3380;DHT22;1703;51.964;7.642;2023-03-20T02:00:45;10.20;99.90
3380;DHT22;1703;51.964;7.642;2023-03-20T02:03:16;10.20;99.90
3380;DHT22;1703;51.964;7.642;2023-03-20T02:06:05;10.20;99.90
3380;DHT22;1703;51.964;7.642;2023-03-20T02:08:55;10.20;99.90
3380;DHT22;1703;51.964;7.642;2023-03-20T02:11:26;10.20;99.90
3380;DHT22;1703;51.964;7.642;2023-03-20T02:13:56;10.20;99.90
3380;DHT22;1703;51.964;7.642;2023-03-20T02:16:28;10.10;99.90
3380;DHT22;1703;51.964;7.642;2023-03-20T02:19:18;10.10;99.90
3380;DHT22;1703;51.964;7.642;2023-03-20T02:22:11;10.10;99.90
3380;DHT22;1703;51.964;7.642;2023-03-20T02:25:27;10.00;99.90
3380;DHT22;1703;51.964;7.642;2023-03-20T02:28:26;10.10;99.90
3380;DHT22;1703;51.964;7.642;2023-03-20T02:31:12;10.10;99.90
3380;DHT22;1703;51.964;7.642;2023-03-20T02:34:07;10.10;99.90
3380;DHT22;1703;51.964;7.642;2023-03-20T02:37:18;10.00;99.90
3380;DHT22;1703;51.964;7.642;2023-03-20T02:39:57;10.00;99.90
3380;DHT22;1703;51.964;7.642;2023-03-20T02:42:31;10.00;99.90
3380;DHT22;1703;51.964;7.642;2023-03-20T02:45:06;9.90;99.90
3380;DHT22;1703;51.964;7.642;2023-03-20T02:47:46;9.90;99.90
3380;DHT22;1703;51.964;7.642;2023-03-20T02:50:25;9.90;99.90
3380;DHT22;1703;51.964;7.642;2023-03-20T02:52:58;9.90;99.90
3380;DHT22;1703;51.964;7.642;2023-03-20T02:55:37;9.80;99.90
3380;DHT22;1703;51.964;7.642;2023-03-20T02:58:11;9.90;99.90
3380;DHT22;1703;51.964;7.642;2023-03-20T03:00:44;9.90;99.90
3380;DHT22;1703;51.964;7.642;2023-03-20T03:03:19;9.80;99.90
3380;DHT22;1703;51.964;7.642;2023-03-20T03:05:49;9.90;99.90
3380;DHT22;1703;51.964;7.642;2023-03-20T03:08:21;9.90;99.90
3380;DHT22;1703;51.964;7.642;2023-03-20T03:10:53;9.90;99.90
3380;DHT22;1703;51.964;7.642;2023-03-20T03:13:24;9.90;99.90
3380;DHT22;1703;51.964;7.642;2023-03-20T03:15:55;10.00;99.90
3380;DHT22;1703;51.964;7.642;2023-03-20T03:18:28;9.90;99.90
3380;DHT22;1703;51.964;7.642;2023-03-20T03:20:59;9.90;99.90
3380;DHT22;1703;51.964;7.642;2023-03-20T03:23:33;9.80;99.90
3380;DHT22;1703;51.964;7.642;2023-03-20T03:26:03;9.90;99.90
3380;DHT22;1703;51.964;7.642;2023-03-20T03:28:35;9.90;99.90
3380;DHT22;1703;51.964;7.642;2023-03-20T03:31:05;9.90;99.90
3380;DHT22;1703;51.964;7.642;2023-03-20T03:33:34;9.90;99.90
3380;DHT22;1703;51.964;7.642;2023-03-20T03:36:10;9.90;99.90
3380;DHT22;1703;51.964;7.642;2023-03-20T03:38:44;9.90;99.90
3380;DHT22;1703;51.964;7.642;2023-03-20T03:41:25;9.90;99.90
3380;DHT22;1703;51.964;7.642;2023-03-20T03:44:03;10.00;99.90
3380;DHT22;1703;51.964;7.642;2023-03-20T03:46:38;10.00;99.90
3380;DHT22;1703;51.964;7.642;2023-03-20T03:49:08;10.00;99.90
3380;DHT22;1703;51.964;7.642;2023-03-20T03:51:40;10.00;99.90
3380;DHT22;1703;51.964;7.642;2023-03-20T03:54:14;10.00;99.90
3380;DHT22;1703;51.964;7.642;2023-03-20T03:56:50;10.00;99.90
3380;DHT22;1703;51.964;7.642;2023-03-20T03:59:23;10.00;99.90
3380;DHT22;1703;51.964;7.642;2023-03-20T04:01:53;9.90;99.90
3380;DHT22;1703;51.964;7.642;2023-03-20T04:04:23;9.90;99.90
3380;DHT22;1703;51.964;7.642;2023-03-20T04:06:50;9.90;99.90
3380;DHT22;1703;51.964;7.642;2023-03-20T04:09:19;9.80;99.90
3380;DHT22;1703;51.964;7.642;2023-03-20T04:11:49;9.90;99.90
3380;DHT22;1703;51.964;7.642;2023-03-20T04:14:18;9.80;99.90
3380;DHT22;1703;51.964;7.642;2023-03-20T04:16:46;9.80;99.90
3380;DHT22;1703;51.964;7.642;2023-03-20T04:19:13;9.80;99.90
3380;DHT22;1703;51.964;7.642;2023-03-20T04:21:43;9.80;99.90
3380;DHT22;1703;51.964;7.642;2023-03-20T04:24:10;9.80;99.90
3380;DHT22;1703;51.964;7.642;2023-03-20T04:26:39;9.80;99.90
3380;DHT22;1703;51.964;7.642;2023-03-20T04:29:06;9.90;99.90
3380;DHT22;1703;51.964;7.642;2023-03-20T04:31:55;9.90;99.90
3380;DHT22;1703;51.964;7.642;2023-03-20T04:34:57;9.90;99.90
3380;DHT22;1703;51.964;7.642;2023-03-20T04:37:44;9.90;99.90
3380;DHT22;1703;51.964;7.642;2023-03-20T04:40:12;9.80;99.90
3380;DHT22;1703;51.964;7.642;2023-03-20T04:42:42;9.70;99.90
3380;DHT22;1703;51.964;7.642;2023-03-20T04:45:10;9.70;99.90
3380;DHT22;1703;51.964;7.642;2023-03-20T04:47:38;9.70;99.90
3380;DHT22;1703;51.964;7.642;2023-03-20T04:50:05;9.60;99.90
3380;DHT22;1703;51.964;7.642;2023-03-20T04:52:32;9.60;99.90
3380;DHT22;1703;51.964;7.642;2023-03-20T04:55:00;9.60;99.90
3380;DHT22;1703;51.964;7.642;2023-03-20T04:57:28;9.60;99.90
3380;DHT22;1703;51.964;7.642;2023-03-20T04:59:58;9.70;99.90
3380;DHT22;1703;51.964;7.642;2023-03-20T05:02:25;9.60;99.90
3380;DHT22;1703;51.964;7.642;2023-03-20T05:04:52;9.60;99.90
3380;DHT22;1703;51.964;7.642;2023-03-20T05:07:19;9.60;99.90
3380;DHT22;1703;51.964;7.642;2023-03-20T05:10:01;9.60;99.90
3380;DHT22;1703;51.964;7.642;2023-03-20T05:12:32;9.60;99.90
3380;DHT22;1703;51.964;7.642;2023-03-20T05:15:25;9.70;99.90
3380;DHT22;1703;51.964;7.642;2023-03-20T05:18:07;9.60;99.90
3380;DHT22;1703;51.964;7.642;2023-03-20T05:20:43;9.60;99.90
3380;DHT22;1703;51.964;7.642;2023-03-20T05:23:45;9.60;99.90
3380;DHT22;1703;51.964;7.642;2023-03-20T05:26:35;9.70;99.90
3380;DHT22;1703;51.964;7.642;2023-03-20T05:29:17;9.60;99.90
3380;DHT22;1703;51.964;7.642;2023-03-20T05:32:06;9.60;99.90
3380;DHT22;1703;51.964;7.642;2023-03-20T05:34:43;9.50;99.90
3380;DHT22;1703;51.964;7.642;2023-03-20T05:37:18;9.50;99.90
3380;DHT22;1703;51.964;7.642;2023-03-20T05:40:07;9.50;99.90
3380;DHT22;1703;51.964;7.642;2023-03-20T05:42:34;9.50;99.90
3380;DHT22;1703;51.964;7.642;2023-03-20T05:45:00;9.50;99.90
3380;DHT22;1703;51.964;7.642;2023-03-20T05:47:47;9.40;99.90
3380;DHT22;1703;51.964;7.642;2023-03-20T05:50:44;9.40;99.90
3380;DHT22;1703;51.964;7.642;2023-03-20T05:53:20;9.30;99.90
3380;DHT22;1703;51.964;7.642;2023-03-20T05:56:08;9.30;99.90
3380;DHT22;1703;51.964;7.642;2023-03-20T05:58:38;9.30;99.90
3380;DHT22;1703;51.964;7.642;2023-03-20T06:01:23;9.30;99.90
3380;DHT22;1703;51.964;7.642;2023-03-20T06:04:10;9.30;99.90
3380;DHT22;1703;51.964;7.642;2023-03-20T06:07:00;9.30;99.90
3380;DHT22;1703;51.964;7.642;2023-03-20T06:09:27;9.30;99.90
3380;DHT22;1703;51.964;7.642;2023-03-20T06:11:56;9.30;99.90
3380;DHT22;1703;51.964;7.642;2023-03-20T06:14:23;9.30;99.90
3380;DHT22;1703;51.964;7.642;2023-03-20T06:16:56;9.30;99.90
3380;DHT22;1703;51.964;7.642;2023-03-20T06:19:25;9.40;99.90
3380;DHT22;1703;51.964;7.642;2023-03-20T06:21:51;9.40;99.90
3380;DHT22;1703;51.964;7.642;2023-03-20T06:24:20;9.40;99.90
3380;DHT22;1703;51.964;7.642;2023-03-20T06:26:47;9.40;99.90
3380;DHT22;1703;51.964;7.642;2023-03-20T06:29:14;9.40;99.90
3380;DHT22;1703;51.964;7.642;2023-03-20T06:31:41;9.30;99.90
3380;DHT22;1703;51.964;7.642;2023-03-20T06:34:13;9.20;99.90
3380;DHT22;1703;51.964;7.642;2023-03-20T06:36:45;9.10;99.90
3380;DHT22;1703;51.964;7.642;2023-03-20T06:39:18;9.10;99.90
3380;DHT22;1703;51.964;7.642;2023-03-20T06:41:46;9.10;99.90
3380;DHT22;1703;51.964;7.642;2023-03-20T06:44:13;9.10;99.90
3380;DHT22;1703;51.964;7.642;2023-03-20T06:47:03;9.10;99.90
3380;DHT22;1703;51.964;7.642;2023-03-20T06:49:30;9.10;99.90
3380;DHT22;1703;51.964;7.642;2023-03-20T06:51:58;9.10;99.90
3380;DHT22;1703;51.964;7.642;2023-03-20T06:54:26;9.10;99.90
3380;DHT22;1703;51.964;7.642;2023-03-20T06:56:54;9.20;99.90
3380;DHT22;1703;51.964;7.642;2023-03-20T06:59:20;9.10;99.90
3380;DHT22;1703;51.964;7.642;2023-03-20T07:01:49;9.10;99.90
3380;DHT22;1703;51.964;7.642;2023-03-20T07:04:17;9.10;99.90
3380;DHT22;1703;51.964;7.642;2023-03-20T07:06:48;9.20;99.90
3380;DHT22;1703;51.964;7.642;2023-03-20T07:09:17;9.20;99.90
3380;DHT22;1703;51.964;7.642;2023-03-20T07:11:44;9.20;99.90
3380;DHT22;1703;51.964;7.642;2023-03-20T07:14:11;9.20;99.90
3380;DHT22;1703;51.964;7.642;2023-03-20T07:16:59;9.20;99.90
3380;DHT22;1703;51.964;7.642;2023-03-20T07:19:26;9.20;99.90
3380;DHT22;1703;51.964;7.642;2023-03-20T07:21:58;9.30;99.90
3380;DHT22;1703;51.964;7.642;2023-03-20T07:24:31;9.40;99.90
3380;DHT22;1703;51.964;7.642;2023-03-20T07:26:58;9.40;99.90
3380;DHT22;1703;51.964;7.642;2023-03-20T07:29:25;9.40;99.90
3380;DHT22;1703;51.964;7.642;2023-03-20T07:31:53;9.40;99.90
3380;DHT22;1703;51.964;7.642;2023-03-20T07:34:28;9.50;99.90
3380;DHT22;1703;51.964;7.642;2023-03-20T07:36:55;9.40;99.90
3380;DHT22;1703;51.964;7.642;2023-03-20T07:39:22;9.50;99.90
3380;DHT22;1703;51.964;7.642;2023-03-20T07:42:01;9.60;99.90
3380;DHT22;1703;51.964;7.642;2023-03-20T07:44:41;9.60;99.90
3380;DHT22;1703;51.964;7.642;2023-03-20T07:47:09;9.60;99.90
3380;DHT22;1703;51.964;7.642;2023-03-20T07:49:36;9.60;99.90
3380;DHT22;1703;51.964;7.642;2023-03-20T07:52:03;9.50;99.90
3380;DHT22;1703;51.964;7.642;2023-03-20T07:54:30;9.50;99.90
3380;DHT22;1703;51.964;7.642;2023-03-20T07:56:57;9.50;99.90
3380;DHT22;1703;51.964;7.642;2023-03-20T07:59:25;9.50;99.90
3380;DHT22;1703;51.964;7.642;2023-03-20T08:01:52;9.50;99.90
3380;DHT22;1703;51.964;7.642;2023-03-20T08:04:18;9.60;99.90
3380;DHT22;1703;51.964;7.642;2023-03-20T08:06:47;9.50;99.90
3380;DHT22;1703;51.964;7.642;2023-03-20T08:09:13;9.50;99.90
3380;DHT22;1703;51.964;7.642;2023-03-20T08:11:40;9.60;99.90
3380;DHT22;1703;51.964;7.642;2023-03-20T08:14:07;9.60;99.90
3380;DHT22;1703;51.964;7.642;2023-03-20T08:16:35;9.60;99.90
3380;DHT22;1703;51.964;7.642;2023-03-20T08:19:02;9.60;99.90
3380;DHT22;1703;51.964;7.642;2023-03-20T08:21:31;9.60;99.90
3380;DHT22;1703;51.964;7.642;2023-03-20T08:23:58;9.60;99.90
3380;DHT22;1703;51.964;7.642;2023-03-20T08:26:56;9.80;99.90
3380;DHT22;1703;51.964;7.642;2023-03-20T08:29:24;9.80;99.90
3380;DHT22;1703;51.964;7.642;2023-03-20T08:31:59;9.90;99.90
3380;DHT22;1703;51.964;7.642;2023-03-20T08:34:30;9.90;99.90
3380;DHT22;1703;51.964;7.642;2023-03-20T08:37:02;9.90;99.90
3380;DHT22;1703;51.964;7.642;2023-03-20T08:39:30;9.90;99.90
3380;DHT22;1703;51.964;7.642;2023-03-20T08:42:02;9.90;99.90
3380;DHT22;1703;51.964;7.642;2023-03-20T08:44:30;10.00;99.90
3380;DHT22;1703;51.964;7.642;2023-03-20T08:46:59;9.90;99.90
3380;DHT22;1703;51.964;7.642;2023-03-20T08:49:28;10.00;99.90
3380;DHT22;1703;51.964;7.642;2023-03-20T08:51:55;10.00;99.90
3380;DHT22;1703;51.964;7.642;2023-03-20T08:54:22;10.10;99.90
3380;DHT22;1703;51.964;7.642;2023-03-20T08:56:51;10.10;99.90
3380;DHT22;1703;51.964;7.642;2023-03-20T08:59:18;10.20;99.90
3380;DHT22;1703;51.964;7.642;2023-03-20T09:01:46;10.10;99.90
3380;DHT22;1703;51.964;7.642;2023-03-20T09:04:16;10.10;99.90
3380;DHT22;1703;51.964;7.642;2023-03-20T09:06:43;10.10;99.90
3380;DHT22;1703;51.964;7.642;2023-03-20T09:09:10;10.10;99.90
3380;DHT22;1703;51.964;7.642;2023-03-20T09:11:40;10.30;99.90
3380;DHT22;1703;51.964;7.642;2023-03-20T09:14:07;10.20;99.90
3380;DHT22;1703;51.964;7.642;2023-03-20T09:16:34;10.30;99.90
3380;DHT22;1703;51.964;7.642;2023-03-20T09:19:01;10.40;99.90
3380;DHT22;1703;51.964;7.642;2023-03-20T09:21:31;10.40;99.90
3380;DHT22;1703;51.964;7.642;2023-03-20T09:23:59;10.60;99.90
3380;DHT22;1703;51.964;7.642;2023-03-20T09:26:26;10.50;99.90
3380;DHT22;1703;51.964;7.642;2023-03-20T09:28:53;10.50;99.90
3380;DHT22;1703;51.964;7.642;2023-03-20T09:31:19;10.50;99.90
3380;DHT22;1703;51.964;7.642;2023-03-20T09:33:47;10.50;99.90
3380;DHT22;1703;51.964;7.642;2023-03-20T09:36:14;10.60;99.90
3380;DHT22;1703;51.964;7.642;2023-03-20T09:38:51;10.50;99.90
3380;DHT22;1703;51.964;7.642;2023-03-20T09:41:20;10.60;99.90
3380;DHT22;1703;51.964;7.642;2023-03-20T09:44:00;10.60;99.90
3380;DHT22;1703;51.964;7.642;2023-03-20T09:49:32;10.60;99.90
3380;DHT22;1703;51.964;7.642;2023-03-20T09:52:11;10.70;99.90
3380;DHT22;1703;51.964;7.642;2023-03-20T09:54:48;10.70;99.90
3380;DHT22;1703;51.964;7.642;2023-03-20T09:57:20;10.70;99.90
3380;DHT22;1703;51.964;7.642;2023-03-20T09:59:54;10.70;99.90
3380;DHT22;1703;51.964;7.642;2023-03-20T10:02:33;10.80;99.90
3380;DHT22;1703;51.964;7.642;2023-03-20T10:05:02;10.80;99.90
3380;DHT22;1703;51.964;7.642;2023-03-20T10:07:31;10.80;99.90
3380;DHT22;1703;51.964;7.642;2023-03-20T10:09:59;10.80;99.90
3380;DHT22;1703;51.964;7.642;2023-03-20T10:12:44;10.70;99.90
3380;DHT22;1703;51.964;7.642;2023-03-20T10:15:20;10.80;99.90
3380;DHT22;1703;51.964;7.642;2023-03-20T10:17:59;10.80;99.90
3380;DHT22;1703;51.964;7.642;2023-03-20T10:20:32;10.70;99.90
3380;DHT22;1703;51.964;7.642;2023-03-20T10:23:05;10.70;99.90
3380;DHT22;1703;51.964;7.642;2023-03-20T10:25:46;10.80;99.90
3380;DHT22;1703;51.964;7.642;2023-03-20T10:28:21;10.70;99.90
3380;DHT22;1703;51.964;7.642;2023-03-20T10:31:00;10.70;99.90
3380;DHT22;1703;51.964;7.642;2023-03-20T10:33:49;10.60;99.90
3380;DHT22;1703;51.964;7.642;2023-03-20T10:36:34;10.70;99.90
3380;DHT22;1703;51.964;7.642;2023-03-20T10:39:10;10.70;99.90
3380;DHT22;1703;51.964;7.642;2023-03-20T10:41:42;10.70;99.90
3380;DHT22;1703;51.964;7.642;2023-03-20T10:44:24;10.80;99.90
3380;DHT22;1703;51.964;7.642;2023-03-20T10:46:57;10.90;99.90
3380;DHT22;1703;51.964;7.642;2023-03-20T10:49:33;11.20;99.90
3380;DHT22;1703;51.964;7.642;2023-03-20T10:52:11;11.20;99.90
3380;DHT22;1703;51.964;7.642;2023-03-20T10:54:41;11.40;99.90
3380;DHT22;1703;51.964;7.642;2023-03-20T10:57:17;11.30;99.90
3380;DHT22;1703;51.964;7.642;2023-03-20T10:59:49;11.40;99.90
3380;DHT22;1703;51.964;7.642;2023-03-20T11:02:18;11.30;99.90
3380;DHT22;1703;51.964;7.642;2023-03-20T11:04:45;11.20;99.90
3380;DHT22;1703;51.964;7.642;2023-03-20T11:07:21;11.10;99.90
3380;DHT22;1703;51.964;7.642;2023-03-20T11:10:13;11.00;99.90
3380;DHT22;1703;51.964;7.642;2023-03-20T11:12:46;11.00;99.90
3380;DHT22;1703;51.964;7.642;2023-03-20T11:15:21;11.10;99.90
3380;DHT22;1703;51.964;7.642;2023-03-20T11:17:53;11.30;99.90
3380;DHT22;1703;51.964;7.642;2023-03-20T11:20:20;11.30;99.90
3380;DHT22;1703;51.964;7.642;2023-03-20T11:22:48;11.40;99.90
3380;DHT22;1703;51.964;7.642;2023-03-20T11:25:24;11.50;99.90
3380;DHT22;1703;51.964;7.642;2023-03-20T11:27:57;11.50;99.90
3380;DHT22;1703;51.964;7.642;2023-03-20T11:30:24;11.50;99.90
3380;DHT22;1703;51.964;7.642;2023-03-20T11:32:54;11.60;99.90
3380;DHT22;1703;51.964;7.642;2023-03-20T11:35:28;11.60;99.90
3380;DHT22;1703;51.964;7.642;2023-03-20T11:38:08;11.60;99.90
3380;DHT22;1703;51.964;7.642;2023-03-20T11:40:36;11.40;99.90
3380;DHT22;1703;51.964;7.642;2023-03-20T11:43:09;11.40;99.90
3380;DHT22;1703;51.964;7.642;2023-03-20T11:45:38;11.40;99.90
3380;DHT22;1703;51.964;7.642;2023-03-20T11:48:05;11.40;99.90
3380;DHT22;1703;51.964;7.642;2023-03-20T11:50:42;11.50;99.90
3380;DHT22;1703;51.964;7.642;2023-03-20T11:53:20;11.40;99.90
3380;DHT22;1703;51.964;7.642;2023-03-20T11:56:00;11.40;99.90
3380;DHT22;1703;51.964;7.642;2023-03-20T11:58:29;11.20;99.90
3380;DHT22;1703;51.964;7.642;2023-03-20T12:00:57;11.20;99.90
3380;DHT22;1703;51.964;7.642;2023-03-20T12:03:44;11.20;99.90
3380;DHT22;1703;51.964;7.642;2023-03-20T12:06:22;11.20;99.90
3380;DHT22;1703;51.964;7.642;2023-03-20T12:08:52;11.10;99.90
3380;DHT22;1703;51.964;7.642;2023-03-20T12:11:39;11.10;99.90
3380;DHT22;1703;51.964;7.642;2023-03-20T12:14:16;11.10;99.90
3380;DHT22;1703;51.964;7.642;2023-03-20T12:16:45;11.00;99.90
3380;DHT22;1703;51.964;7.642;2023-03-20T12:19:18;11.10;99.90
3380;DHT22;1703;51.964;7.642;2023-03-20T12:21:51;11.10;99.90
3380;DHT22;1703;51.964;7.642;2023-03-20T12:24:28;11.00;99.90
3380;DHT22;1703;51.964;7.642;2023-03-20T12:27:12;11.10;99.90
3380;DHT22;1703;51.964;7.642;2023-03-20T12:29:57;11.20;99.90
3380;DHT22;1703;51.964;7.642;2023-03-20T12:32:31;11.40;99.90
3380;DHT22;1703;51.964;7.642;2023-03-20T12:35:09;11.30;99.90
3380;DHT22;1703;51.964;7.642;2023-03-20T12:37:38;11.40;99.90
3380;DHT22;1703;51.964;7.642;2023-03-20T12:40:12;11.60;99.90
3380;DHT22;1703;51.964;7.642;2023-03-20T12:42:47;11.50;99.90
3380;DHT22;1703;51.964;7.642;2023-03-20T12:45:22;11.50;99.90
3380;DHT22;1703;51.964;7.642;2023-03-20T12:48:12;11.20;99.90
3380;DHT22;1703;51.964;7.642;2023-03-20T12:50:47;11.10;99.90
3380;DHT22;1703;51.964;7.642;2023-03-20T12:53:29;11.00;99.90
3380;DHT22;1703;51.964;7.642;2023-03-20T12:56:07;10.90;99.90
3380;DHT22;1703;51.964;7.642;2023-03-20T12:58:43;10.90;99.90
3380;DHT22;1703;51.964;7.642;2023-03-20T13:01:18;10.90;99.90
3380;DHT22;1703;51.964;7.642;2023-03-20T13:06:40;11.00;99.90
3380;DHT22;1703;51.964;7.642;2023-03-20T13:09:35;10.80;99.90
3380;DHT22;1703;51.964;7.642;2023-03-20T13:12:13;10.70;99.90
3380;DHT22;1703;51.964;7.642;2023-03-20T13:14:47;10.80;99.90
3380;DHT22;1703;51.964;7.642;2023-03-20T13:17:24;10.60;99.90
3380;DHT22;1703;51.964;7.642;2023-03-20T13:20:06;10.70;99.90
3380;DHT22;1703;51.964;7.642;2023-03-20T13:22:42;10.50;99.90
3380;DHT22;1703;51.964;7.642;2023-03-20T13:25:27;10.50;99.90
3380;DHT22;1703;51.964;7.642;2023-03-20T13:28:28;10.50;99.90
3380;DHT22;1703;51.964;7.642;2023-03-20T13:31:26;10.40;99.90
3380;DHT22;1703;51.964;7.642;2023-03-20T13:34:03;10.30;99.90
3380;DHT22;1703;51.964;7.642;2023-03-20T13:36:42;10.20;99.90
3380;DHT22;1703;51.964;7.642;2023-03-20T13:39:15;10.20;99.90
3380;DHT22;1703;51.964;7.642;2023-03-20T13:41:45;10.20;99.90
3380;DHT22;1703;51.964;7.642;2023-03-20T13:44:15;10.30;99.90
3380;DHT22;1703;51.964;7.642;2023-03-20T13:46:48;10.30;99.90
3380;DHT22;1703;51.964;7.642;2023-03-20T13:49:20;10.30;99.90
3380;DHT22;1703;51.964;7.642;2023-03-20T13:51:54;10.30;99.90
3380;DHT22;1703;51.964;7.642;2023-03-20T13:54:53;10.20;99.90
3380;DHT22;1703;51.964;7.642;2023-03-20T13:57:38;10.20;99.90
3380;DHT22;1703;51.964;7.642;2023-03-20T14:00:18;10.40;99.90
3380;DHT22;1703;51.964;7.642;2023-03-20T14:03:05;10.50;99.90
3380;DHT22;1703;51.964;7.642;2023-03-20T14:05:40;10.70;99.90
3380;DHT22;1703;51.964;7.642;2023-03-20T14:08:32;10.80;99.90
3380;DHT22;1703;51.964;7.642;2023-03-20T14:11:14;10.70;99.90
3380;DHT22;1703;51.964;7.642;2023-03-20T14:14:10;10.60;99.90
3380;DHT22;1703;51.964;7.642;2023-03-20T14:16:39;10.70;99.90
3380;DHT22;1703;51.964;7.642;2023-03-20T14:19:08;10.60;99.90
3380;DHT22;1703;51.964;7.642;2023-03-20T14:21:45;10.70;99.90
3380;DHT22;1703;51.964;7.642;2023-03-20T14:24:14;10.80;99.90
3380;DHT22;1703;51.964;7.642;2023-03-20T14:26:47;11.00;99.90
3380;DHT22;1703;51.964;7.642;2023-03-20T14:29:33;11.20;99.90
3380;DHT22;1703;51.964;7.642;2023-03-20T14:35:22;11.50;99.90
3380;DHT22;1703;51.964;7.642;2023-03-20T14:38:10;11.40;99.90
3380;DHT22;1703;51.964;7.642;2023-03-20T14:40:48;11.60;99.90
3380;DHT22;1703;51.964;7.642;2023-03-20T14:43:26;11.60;99.90
3380;DHT22;1703;51.964;7.642;2023-03-20T14:45:59;11.70;99.90
3380;DHT22;1703;51.964;7.642;2023-03-20T14:48:31;11.70;99.90
3380;DHT22;1703;51.964;7.642;2023-03-20T14:51:19;11.60;99.90
3380;DHT22;1703;51.964;7.642;2023-03-20T14:53:53;11.50;99.90
3380;DHT22;1703;51.964;7.642;2023-03-20T14:56:27;11.50;99.90
3380;DHT22;1703;51.964;7.642;2023-03-20T14:58:57;11.60;99.90
3380;DHT22;1703;51.964;7.642;2023-03-20T15:01:39;11.70;99.90
3380;DHT22;1703;51.964;7.642;2023-03-20T15:04:21;11.60;99.90
3380;DHT22;1703;51.964;7.642;2023-03-20T15:06:51;11.50;99.90
3380;DHT22;1703;51.964;7.642;2023-03-20T15:09:21;11.40;99.90
3380;DHT22;1703;51.964;7.642;2023-03-20T15:11:50;11.40;99.90
3380;DHT22;1703;51.964;7.642;2023-03-20T15:14:19;11.50;99.90
3380;DHT22;1703;51.964;7.642;2023-03-20T15:16:47;11.60;99.90
3380;DHT22;1703;51.964;7.642;2023-03-20T15:19:18;11.60;99.90
3380;DHT22;1703;51.964;7.642;2023-03-20T15:21:46;11.60;99.90
3380;DHT22;1703;51.964;7.642;2023-03-20T15:24:19;11.60;99.90
3380;DHT22;1703;51.964;7.642;2023-03-20T15:26:51;11.60;99.90
3380;DHT22;1703;51.964;7.642;2023-03-20T15:29:18;11.70;99.90
3380;DHT22;1703;51.964;7.642;2023-03-20T15:31:45;11.50;99.90
3380;DHT22;1703;51.964;7.642;2023-03-20T15:34:20;11.50;99.90
3380;DHT22;1703;51.964;7.642;2023-03-20T15:36:49;11.40;99.90
3380;DHT22;1703;51.964;7.642;2023-03-20T15:39:18;11.40;99.90
3380;DHT22;1703;51.964;7.642;2023-03-20T15:41:51;11.30;99.90
3380;DHT22;1703;51.964;7.642;2023-03-20T15:44:20;11.30;99.90
3380;DHT22;1703;51.964;7.642;2023-03-20T15:47:00;11.40;99.90
3380;DHT22;1703;51.964;7.642;2023-03-20T15:49:30;11.30;99.90
3380;DHT22;1703;51.964;7.642;2023-03-20T15:51:59;11.20;99.90
3380;DHT22;1703;51.964;7.642;2023-03-20T15:54:26;11.30;99.90
3380;DHT22;1703;51.964;7.642;2023-03-20T15:56:56;11.20;99.90
3380;DHT22;1703;51.964;7.642;2023-03-20T15:59:26;11.30;99.90
3380;DHT22;1703;51.964;7.642;2023-03-20T16:01:56;11.20;99.90
3380;DHT22;1703;51.964;7.642;2023-03-20T16:04:24;11.10;99.90
3380;DHT22;1703;51.964;7.642;2023-03-20T16:06:53;11.00;99.90
3380;DHT22;1703;51.964;7.642;2023-03-20T16:09:20;10.90;99.90
3380;DHT22;1703;51.964;7.642;2023-03-20T16:11:54;10.80;99.90
3380;DHT22;1703;51.964;7.642;2023-03-20T16:14:24;10.80;99.90
3380;DHT22;1703;51.964;7.642;2023-03-20T16:16:53;10.80;99.90
3380;DHT22;1703;51.964;7.642;2023-03-20T16:19:22;10.80;99.90
3380;DHT22;1703;51.964;7.642;2023-03-20T16:21:52;10.80;99.90
3380;DHT22;1703;51.964;7.642;2023-03-20T16:24:24;10.90;99.90
3380;DHT22;1703;51.964;7.642;2023-03-20T16:26:52;10.90;99.90
3380;DHT22;1703;51.964;7.642;2023-03-20T16:29:22;10.90;99.90
3380;DHT22;1703;51.964;7.642;2023-03-20T16:31:55;10.80;99.90
3380;DHT22;1703;51.964;7.642;2023-03-20T16:34:25;10.80;99.90
3380;DHT22;1703;51.964;7.642;2023-03-20T16:36:56;10.80;99.90
3380;DHT22;1703;51.964;7.642;2023-03-20T16:39:26;10.70;99.90
3380;DHT22;1703;51.964;7.642;2023-03-20T16:42:17;10.70;99.90
3380;DHT22;1703;51.964;7.642;2023-03-20T16:44:52;10.60;99.90
3380;DHT22;1703;51.964;7.642;2023-03-20T16:47:21;10.60;99.90
3380;DHT22;1703;51.964;7.642;2023-03-20T16:49:50;10.60;99.90
3380;DHT22;1703;51.964;7.642;2023-03-20T16:52:29;10.60;99.90
3380;DHT22;1703;51.964;7.642;2023-03-20T16:54:58;10.60;99.90
3380;DHT22;1703;51.964;7.642;2023-03-20T16:57:27;10.60;99.90